»·PEaware :: DAL9200 KJTC-KIGM

DAL9200 :: KJTC-KIGM

FLIGHT INFORMATION

Flight Status: Arrived
Operator:
Delta Air Lines
More flights by this operator :: More flights under this callsign
Pilot: Kevin M. (7)
Aircraft: BOEING 737-800
(B738)
More flights by this aircraft type
Origin: KJTC Springerville Municipal
United States
Destination: KIGM Kingman
United States
More flights between these airports :: More routes between these airports
Route: +DRK
File this flight plan on PilotEdge
Remarks: You may remember me from yesterday, but PEAware was down so here we are again.
Altitude:
(Current/Filed)
32,000ft
Speed:
(Current/Filed)
468kts
Departed: 08-Oct-20 07:16 AM
Arrived: 08-Oct-20 07:57 AM
Distance/Time
Traveled:
238nm/0:41
Distance/Time
To Go:
Arrived

Flight Plot

Page will automatically refresh every two minutes.

Flight plan parsing failed; only flown route is shown


Map Options




Map Legend


Flown Route
Filed Route
Departure Airport
Arrival Airport
Navaid (VOR, NDB)
Fix

Horizontal Profiles

Position Reports

Time Latitude Longitude Heading Altitude Ground
Speed
08-Oct-20 06:59 34.131125 -109.307883 226 7038ft 0kts
08-Oct-20 07:00 34.131125 -109.307883 226 7038ft 0kts
08-Oct-20 07:01 34.131125 -109.307883 226 7038ft 0kts
08-Oct-20 07:02 34.131125 -109.307883 226 7038ft 0kts
08-Oct-20 07:03 34.131125 -109.307883 226 7038ft 0kts
08-Oct-20 07:05 34.131125 -109.307883 226 7038ft 0kts
08-Oct-20 07:06 34.131125 -109.307883 226 7038ft 0kts
08-Oct-20 07:07 34.131125 -109.307883 226 7038ft 0kts
08-Oct-20 07:08 34.131125 -109.307883 226 7038ft 0kts
08-Oct-20 07:09 34.131125 -109.307883 226 7038ft 0kts
08-Oct-20 07:10 34.131125 -109.307883 226 7038ft 0kts
08-Oct-20 07:11 34.131125 -109.307883 227 7038ft 0kts
08-Oct-20 07:12 34.131125 -109.307883 226 7038ft 0kts
08-Oct-20 07:13 34.131252 -109.308775 344 7040ft 4kts
08-Oct-20 07:14 34.134966 -109.304622 41 7026ft 26kts
08-Oct-20 07:15 34.138304 -109.301434 330 7011ft 3kts
08-Oct-20 07:16 34.131595 -109.309675 223 7041ft 147kts
08-Oct-20 07:17 34.116456 -109.362224 290 9831ft 226kts
08-Oct-20 07:18 34.139193 -109.446563 279 12514ft 293kts
08-Oct-20 07:19 34.157419 -109.554136 281 14938ft 357kts
08-Oct-20 07:20 34.181166 -109.681769 281 17005ft 405kts
08-Oct-20 07:20 34.202095 -109.793819 281 19254ft 416kts
08-Oct-20 07:22 34.232322 -109.955305 282 22021ft 430kts
08-Oct-20 07:22 34.254383 -110.073270 282 24005ft 432kts
08-Oct-20 07:24 34.284956 -110.236687 283 27125ft 422kts
08-Oct-20 07:24 34.306299 -110.350843 284 29234ft 416kts
08-Oct-20 07:25 34.331662 -110.486078 284 31511ft 411kts
08-Oct-20 07:26 34.356261 -110.618134 286 32290ft 404kts
08-Oct-20 07:27 34.381209 -110.752035 285 32274ft 410kts
08-Oct-20 07:28 34.406434 -110.887468 285 32242ft 414kts
08-Oct-20 07:29 34.431810 -111.023543 285 32237ft 416kts
08-Oct-20 07:30 34.457279 -111.160175 284 32236ft 416kts
08-Oct-20 07:31 34.482984 -111.298113 284 32235ft 416kts
08-Oct-20 07:32 34.508469 -111.434943 284 32229ft 416kts
08-Oct-20 07:33 34.534001 -111.571972 284 32209ft 416kts
08-Oct-20 07:34 34.559538 -111.709158 284 32203ft 416kts
08-Oct-20 07:35 34.584906 -111.845719 284 32201ft 416kts
08-Oct-20 07:36 34.610444 -111.983016 284 32200ft 416kts
08-Oct-20 07:37 34.635877 -112.119705 284 32199ft 416kts
08-Oct-20 07:38 34.661251 -112.256172 284 32198ft 410kts
08-Oct-20 07:39 34.686420 -112.391499 284 32195ft 411kts
08-Oct-20 07:40 34.713573 -112.527560 289 28821ft 413kts
08-Oct-20 07:41 34.761132 -112.655848 299 25498ft 404kts
08-Oct-20 07:42 34.813657 -112.770032 294 24409ft 365kts
08-Oct-20 07:43 34.859644 -112.884365 292 22346ft 364kts
08-Oct-20 07:44 34.903665 -112.997553 292 20135ft 360kts
08-Oct-20 07:45 34.946454 -113.108952 292 17949ft 353kts
08-Oct-20 07:46 34.988191 -113.218123 292 15827ft 347kts
08-Oct-20 07:47 35.029131 -113.325392 293 13740ft 341kts
08-Oct-20 07:48 35.069154 -113.430638 293 12020ft 344kts
08-Oct-20 07:49 35.106275 -113.528706 293 11993ft 319kts
08-Oct-20 07:50 35.147379 -113.637130 293 11984ft 358kts
08-Oct-20 07:51 35.207896 -113.733347 310 11979ft 346kts
08-Oct-20 07:52 35.265712 -113.809908 317 11585ft 289kts
08-Oct-20 07:53 35.316204 -113.866959 279 8612ft 215kts
08-Oct-20 07:54 35.281273 -113.909088 224 4884ft 192kts
08-Oct-20 07:55 35.254136 -113.944818 225 3414ft 46kts
08-Oct-20 07:56 35.254194 -113.947536 21 3405ft 13kts
08-Oct-20 07:57 35.254861 -113.947511 346 3403ft 0kts
08-Oct-20 07:58 35.254861 -113.947511 346 3403ft 0kts
08-Oct-20 07:59 35.254861 -113.947511 346 3403ft 0kts

Navigation Log

Ident Type
Flight plan parsing failed, navigation log unavailable